sensor_id;sensor_type;location;lat;lon;timestamp;P1;durP1;ratioP1;P2;durP2;ratioP2
13731;SDS011;6937;56.096;12.664;2024-02-14T00:01:21;44.97;;;25.67;;
13731;SDS011;6937;56.096;12.664;2024-02-14T00:03:47;47.15;;;26.95;;
13731;SDS011;6937;56.096;12.664;2024-02-14T00:06:12;51.50;;;28.23;;
13731;SDS011;6937;56.096;12.664;2024-02-14T00:08:38;57.60;;;29.77;;
13731;SDS011;6937;56.096;12.664;2024-02-14T00:11:03;56.97;;;31.80;;
13731;SDS011;6937;56.096;12.664;2024-02-14T00:13:29;57.70;;;34.17;;
13731;SDS011;6937;56.096;12.664;2024-02-14T00:15:54;64.70;;;34.95;;
13731;SDS011;6937;56.096;12.664;2024-02-14T00:18:21;67.15;;;35.50;;
13731;SDS011;6937;56.096;12.664;2024-02-14T00:20:47;71.70;;;39.63;;
13731;SDS011;6937;56.096;12.664;2024-02-14T00:23:13;72.60;;;38.80;;
13731;SDS011;6937;56.096;12.664;2024-02-14T00:25:39;72.60;;;39.80;;
13731;SDS011;6937;56.096;12.664;2024-02-14T00:28:04;69.50;;;40.40;;
13731;SDS011;6937;56.096;12.664;2024-02-14T00:30:30;57.80;;;37.25;;
13731;SDS011;6937;56.096;12.664;2024-02-14T00:32:56;56.20;;;37.97;;
13731;SDS011;6937;56.096;12.664;2024-02-14T00:35:21;55.97;;;37.17;;
13731;SDS011;6937;56.096;12.664;2024-02-14T00:37:47;59.45;;;36.63;;
13731;SDS011;6937;56.096;12.664;2024-02-14T00:40:13;51.53;;;35.22;;
13731;SDS011;6937;56.096;12.664;2024-02-14T00:42:38;51.25;;;34.28;;
13731;SDS011;6937;56.096;12.664;2024-02-14T00:45:04;49.35;;;34.03;;
13731;SDS011;6937;56.096;12.664;2024-02-14T00:47:33;47.22;;;33.63;;
13731;SDS011;6937;56.096;12.664;2024-02-14T00:49:59;48.47;;;31.45;;
13731;SDS011;6937;56.096;12.664;2024-02-14T00:52:25;43.67;;;32.13;;
13731;SDS011;6937;56.096;12.664;2024-02-14T00:54:50;42.53;;;31.15;;
13731;SDS011;6937;56.096;12.664;2024-02-14T00:57:16;52.17;;;32.50;;
13731;SDS011;6937;56.096;12.664;2024-02-14T00:59:43;41.20;;;30.67;;
13731;SDS011;6937;56.096;12.664;2024-02-14T01:02:08;43.53;;;30.08;;
13731;SDS011;6937;56.096;12.664;2024-02-14T01:04:34;38.58;;;27.67;;
13731;SDS011;6937;56.096;12.664;2024-02-14T01:07:01;40.33;;;27.98;;
13731;SDS011;6937;56.096;12.664;2024-02-14T01:09:27;34.75;;;25.83;;
13731;SDS011;6937;56.096;12.664;2024-02-14T01:11:53;32.13;;;24.88;;
13731;SDS011;6937;56.096;12.664;2024-02-14T01:14:18;33.50;;;23.35;;
13731;SDS011;6937;56.096;12.664;2024-02-14T01:16:44;27.50;;;21.80;;
13731;SDS011;6937;56.096;12.664;2024-02-14T01:19:10;26.48;;;20.27;;
13731;SDS011;6937;56.096;12.664;2024-02-14T01:21:36;26.50;;;19.58;;
13731;SDS011;6937;56.096;12.664;2024-02-14T01:24:01;21.90;;;18.15;;
13731;SDS011;6937;56.096;12.664;2024-02-14T01:26:27;23.48;;;18.55;;
13731;SDS011;6937;56.096;12.664;2024-02-14T01:28:52;22.27;;;18.40;;
13731;SDS011;6937;56.096;12.664;2024-02-14T01:31:18;22.45;;;17.58;;
13731;SDS011;6937;56.096;12.664;2024-02-14T01:33:45;18.58;;;15.18;;
13731;SDS011;6937;56.096;12.664;2024-02-14T01:36:11;19.88;;;16.33;;
13731;SDS011;6937;56.096;12.664;2024-02-14T01:38:36;17.58;;;14.85;;
13731;SDS011;6937;56.096;12.664;2024-02-14T01:41:02;16.52;;;14.55;;
13731;SDS011;6937;56.096;12.664;2024-02-14T01:43:28;16.42;;;12.98;;
13731;SDS011;6937;56.096;12.664;2024-02-14T01:45:55;14.13;;;11.25;;
13731;SDS011;6937;56.096;12.664;2024-02-14T01:48:28;12.80;;;10.77;;
13731;SDS011;6937;56.096;12.664;2024-02-14T01:50:53;12.15;;;9.45;;
13731;SDS011;6937;56.096;12.664;2024-02-14T01:53:19;11.90;;;10.15;;
13731;SDS011;6937;56.096;12.664;2024-02-14T01:55:45;11.57;;;9.75;;
13731;SDS011;6937;56.096;12.664;2024-02-14T01:58:10;12.38;;;10.35;;
13731;SDS011;6937;56.096;12.664;2024-02-14T02:00:39;13.43;;;10.98;;
13731;SDS011;6937;56.096;12.664;2024-02-14T02:03:04;12.82;;;11.45;;
13731;SDS011;6937;56.096;12.664;2024-02-14T02:05:29;15.60;;;11.02;;
13731;SDS011;6937;56.096;12.664;2024-02-14T02:07:55;17.38;;;12.45;;
13731;SDS011;6937;56.096;12.664;2024-02-14T02:10:20;14.63;;;11.60;;
13731;SDS011;6937;56.096;12.664;2024-02-14T02:12:47;14.32;;;12.00;;
13731;SDS011;6937;56.096;12.664;2024-02-14T02:15:14;18.98;;;12.68;;
13731;SDS011;6937;56.096;12.664;2024-02-14T02:17:40;16.42;;;12.98;;
13731;SDS011;6937;56.096;12.664;2024-02-14T02:20:05;13.68;;;11.95;;
13731;SDS011;6937;56.096;12.664;2024-02-14T02:22:35;16.17;;;12.23;;
13731;SDS011;6937;56.096;12.664;2024-02-14T02:25:03;18.35;;;13.75;;
13731;SDS011;6937;56.096;12.664;2024-02-14T02:27:32;19.85;;;15.90;;
13731;SDS011;6937;56.096;12.664;2024-02-14T02:30:00;24.10;;;16.98;;
13731;SDS011;6937;56.096;12.664;2024-02-14T02:32:26;25.63;;;18.65;;
13731;SDS011;6937;56.096;12.664;2024-02-14T02:34:51;26.35;;;20.80;;
13731;SDS011;6937;56.096;12.664;2024-02-14T02:37:17;29.08;;;22.60;;
13731;SDS011;6937;56.096;12.664;2024-02-14T02:39:44;33.40;;;24.60;;
13731;SDS011;6937;56.096;12.664;2024-02-14T02:42:09;43.47;;;28.00;;
13731;SDS011;6937;56.096;12.664;2024-02-14T02:44:39;37.28;;;28.27;;
13731;SDS011;6937;56.096;12.664;2024-02-14T02:47:04;43.85;;;29.67;;
13731;SDS011;6937;56.096;12.664;2024-02-14T02:49:29;41.88;;;30.52;;
13731;SDS011;6937;56.096;12.664;2024-02-14T02:51:55;43.05;;;30.23;;
13731;SDS011;6937;56.096;12.664;2024-02-14T02:54:20;44.25;;;31.42;;
13731;SDS011;6937;56.096;12.664;2024-02-14T02:56:48;45.15;;;31.35;;
13731;SDS011;6937;56.096;12.664;2024-02-14T02:59:14;46.67;;;32.45;;
13731;SDS011;6937;56.096;12.664;2024-02-14T03:01:42;46.00;;;32.83;;
13731;SDS011;6937;56.096;12.664;2024-02-14T03:04:07;52.15;;;35.83;;
13731;SDS011;6937;56.096;12.664;2024-02-14T03:06:33;47.20;;;35.08;;
13731;SDS011;6937;56.096;12.664;2024-02-14T03:08:58;50.35;;;36.45;;
13731;SDS011;6937;56.096;12.664;2024-02-14T03:11:24;52.35;;;37.35;;
13731;SDS011;6937;56.096;12.664;2024-02-14T03:13:51;50.90;;;38.38;;
13731;SDS011;6937;56.096;12.664;2024-02-14T03:16:17;55.03;;;37.42;;
13731;SDS011;6937;56.096;12.664;2024-02-14T03:18:43;54.72;;;36.40;;
13731;SDS011;6937;56.096;12.664;2024-02-14T03:21:08;49.38;;;36.80;;
13731;SDS011;6937;56.096;12.664;2024-02-14T03:23:34;50.05;;;36.28;;
13731;SDS011;6937;56.096;12.664;2024-02-14T03:25:59;53.78;;;36.55;;
13731;SDS011;6937;56.096;12.664;2024-02-14T03:28:25;52.10;;;37.90;;
13731;SDS011;6937;56.096;12.664;2024-02-14T03:30:51;58.67;;;38.00;;
13731;SDS011;6937;56.096;12.664;2024-02-14T03:33:17;53.55;;;38.03;;
13731;SDS011;6937;56.096;12.664;2024-02-14T03:35:42;58.55;;;40.30;;
13731;SDS011;6937;56.096;12.664;2024-02-14T03:38:08;52.53;;;39.40;;
13731;SDS011;6937;56.096;12.664;2024-02-14T03:40:34;53.05;;;37.35;;
13731;SDS011;6937;56.096;12.664;2024-02-14T03:43:01;49.42;;;39.15;;
13731;SDS011;6937;56.096;12.664;2024-02-14T03:45:27;53.00;;;39.63;;
13731;SDS011;6937;56.096;12.664;2024-02-14T03:47:54;51.42;;;38.60;;
13731;SDS011;6937;56.096;12.664;2024-02-14T03:50:20;56.83;;;40.03;;
13731;SDS011;6937;56.096;12.664;2024-02-14T03:52:45;47.03;;;37.45;;
13731;SDS011;6937;56.096;12.664;2024-02-14T03:55:12;50.85;;;39.83;;
13731;SDS011;6937;56.096;12.664;2024-02-14T03:57:39;46.55;;;38.03;;
13731;SDS011;6937;56.096;12.664;2024-02-14T04:00:04;49.13;;;39.60;;
13731;SDS011;6937;56.096;12.664;2024-02-14T04:02:33;47.45;;;37.42;;
13731;SDS011;6937;56.096;12.664;2024-02-14T04:05:00;50.65;;;40.10;;
13731;SDS011;6937;56.096;12.664;2024-02-14T04:07:25;49.50;;;38.45;;
13731;SDS011;6937;56.096;12.664;2024-02-14T04:09:51;48.28;;;38.05;;
13731;SDS011;6937;56.096;12.664;2024-02-14T04:12:16;51.58;;;39.05;;
13731;SDS011;6937;56.096;12.664;2024-02-14T04:14:42;51.67;;;38.45;;
13731;SDS011;6937;56.096;12.664;2024-02-14T04:17:08;46.75;;;37.70;;
13731;SDS011;6937;56.096;12.664;2024-02-14T04:19:33;47.45;;;38.33;;
13731;SDS011;6937;56.096;12.664;2024-02-14T04:21:59;49.08;;;38.05;;
13731;SDS011;6937;56.096;12.664;2024-02-14T04:24:24;50.88;;;39.63;;
13731;SDS011;6937;56.096;12.664;2024-02-14T04:26:50;47.22;;;37.97;;
13731;SDS011;6937;56.096;12.664;2024-02-14T04:29:15;45.90;;;37.78;;
13731;SDS011;6937;56.096;12.664;2024-02-14T04:31:40;53.40;;;38.50;;
13731;SDS011;6937;56.096;12.664;2024-02-14T04:34:07;54.13;;;38.40;;
13731;SDS011;6937;56.096;12.664;2024-02-14T04:36:34;49.38;;;37.22;;
13731;SDS011;6937;56.096;12.664;2024-02-14T04:39:00;52.00;;;39.55;;
13731;SDS011;6937;56.096;12.664;2024-02-14T04:41:26;54.65;;;38.90;;
13731;SDS011;6937;56.096;12.664;2024-02-14T04:43:51;48.38;;;38.28;;
13731;SDS011;6937;56.096;12.664;2024-02-14T04:46:17;58.08;;;40.28;;
13731;SDS011;6937;56.096;12.664;2024-02-14T04:48:42;56.20;;;39.78;;
13731;SDS011;6937;56.096;12.664;2024-02-14T04:51:07;47.83;;;36.85;;
13731;SDS011;6937;56.096;12.664;2024-02-14T04:53:33;54.08;;;39.22;;
13731;SDS011;6937;56.096;12.664;2024-02-14T04:55:59;50.55;;;37.63;;
13731;SDS011;6937;56.096;12.664;2024-02-14T04:58:24;54.38;;;38.25;;
13731;SDS011;6937;56.096;12.664;2024-02-14T05:00:51;49.10;;;37.03;;
13731;SDS011;6937;56.096;12.664;2024-02-14T05:03:17;56.85;;;39.13;;
13731;SDS011;6937;56.096;12.664;2024-02-14T05:05:43;54.53;;;38.65;;
13731;SDS011;6937;56.096;12.664;2024-02-14T05:08:08;50.15;;;37.83;;
13731;SDS011;6937;56.096;12.664;2024-02-14T05:10:34;47.65;;;37.42;;
13731;SDS011;6937;56.096;12.664;2024-02-14T05:12:59;60.00;;;40.53;;
13731;SDS011;6937;56.096;12.664;2024-02-14T05:15:26;59.58;;;41.90;;
13731;SDS011;6937;56.096;12.664;2024-02-14T05:17:51;55.53;;;40.03;;
13731;SDS011;6937;56.096;12.664;2024-02-14T05:20:17;63.53;;;41.03;;
13731;SDS011;6937;56.096;12.664;2024-02-14T05:22:43;59.55;;;40.75;;
13731;SDS011;6937;56.096;12.664;2024-02-14T05:25:08;69.38;;;44.88;;
13731;SDS011;6937;56.096;12.664;2024-02-14T05:27:37;63.20;;;42.45;;
13731;SDS011;6937;56.096;12.664;2024-02-14T05:30:03;68.85;;;42.00;;
13731;SDS011;6937;56.096;12.664;2024-02-14T05:32:34;70.05;;;43.95;;
13731;SDS011;6937;56.096;12.664;2024-02-14T05:35:00;60.42;;;42.53;;
13731;SDS011;6937;56.096;12.664;2024-02-14T05:37:26;66.68;;;43.65;;
13731;SDS011;6937;56.096;12.664;2024-02-14T05:39:56;67.43;;;44.83;;
13731;SDS011;6937;56.096;12.664;2024-02-14T05:42:22;75.20;;;44.58;;
13731;SDS011;6937;56.096;12.664;2024-02-14T05:44:48;67.82;;;42.10;;
13731;SDS011;6937;56.096;12.664;2024-02-14T05:47:13;61.80;;;42.08;;
13731;SDS011;6937;56.096;12.664;2024-02-14T05:49:39;70.13;;;43.45;;
13731;SDS011;6937;56.096;12.664;2024-02-14T05:52:06;73.18;;;44.67;;
13731;SDS011;6937;56.096;12.664;2024-02-14T05:54:34;62.17;;;41.78;;
13731;SDS011;6937;56.096;12.664;2024-02-14T05:56:59;65.80;;;43.83;;
13731;SDS011;6937;56.096;12.664;2024-02-14T05:59:26;70.68;;;42.45;;
13731;SDS011;6937;56.096;12.664;2024-02-14T06:01:51;71.78;;;43.00;;
13731;SDS011;6937;56.096;12.664;2024-02-14T06:04:16;64.70;;;41.45;;
13731;SDS011;6937;56.096;12.664;2024-02-14T06:06:42;63.50;;;40.85;;
13731;SDS011;6937;56.096;12.664;2024-02-14T06:09:07;59.92;;;40.33;;
13731;SDS011;6937;56.096;12.664;2024-02-14T06:11:36;71.80;;;42.65;;
13731;SDS011;6937;56.096;12.664;2024-02-14T06:14:04;72.78;;;43.17;;
13731;SDS011;6937;56.096;12.664;2024-02-14T06:16:30;68.05;;;43.33;;
13731;SDS011;6937;56.096;12.664;2024-02-14T06:18:56;61.33;;;40.50;;
13731;SDS011;6937;56.096;12.664;2024-02-14T06:21:21;66.90;;;41.85;;
13731;SDS011;6937;56.096;12.664;2024-02-14T06:23:46;68.35;;;42.33;;
13731;SDS011;6937;56.096;12.664;2024-02-14T06:26:12;69.10;;;42.08;;
13731;SDS011;6937;56.096;12.664;2024-02-14T06:28:37;77.88;;;44.85;;
13731;SDS011;6937;56.096;12.664;2024-02-14T06:31:03;74.13;;;43.65;;
13731;SDS011;6937;56.096;12.664;2024-02-14T06:33:28;74.07;;;43.03;;
13731;SDS011;6937;56.096;12.664;2024-02-14T06:35:53;78.38;;;42.28;;
13731;SDS011;6937;56.096;12.664;2024-02-14T06:38:19;79.50;;;42.83;;
13731;SDS011;6937;56.096;12.664;2024-02-14T06:40:44;69.90;;;41.00;;
13731;SDS011;6937;56.096;12.664;2024-02-14T06:43:11;82.25;;;44.72;;
13731;SDS011;6937;56.096;12.664;2024-02-14T06:45:37;67.78;;;40.53;;
13731;SDS011;6937;56.096;12.664;2024-02-14T06:48:03;73.85;;;42.08;;
13731;SDS011;6937;56.096;12.664;2024-02-14T06:50:29;78.47;;;42.70;;
13731;SDS011;6937;56.096;12.664;2024-02-14T06:52:54;84.13;;;45.45;;
13731;SDS011;6937;56.096;12.664;2024-02-14T06:55:24;82.40;;;43.25;;
13731;SDS011;6937;56.096;12.664;2024-02-14T06:57:50;73.47;;;42.17;;
13731;SDS011;6937;56.096;12.664;2024-02-14T07:00:15;68.60;;;41.72;;
13731;SDS011;6937;56.096;12.664;2024-02-14T07:02:41;83.38;;;44.30;;
13731;SDS011;6937;56.096;12.664;2024-02-14T07:05:08;71.63;;;41.75;;
13731;SDS011;6937;56.096;12.664;2024-02-14T07:07:37;84.35;;;42.88;;
13731;SDS011;6937;56.096;12.664;2024-02-14T07:10:03;76.30;;;42.53;;
13731;SDS011;6937;56.096;12.664;2024-02-14T07:12:31;77.63;;;42.00;;
13731;SDS011;6937;56.096;12.664;2024-02-14T07:14:56;81.78;;;42.28;;
13731;SDS011;6937;56.096;12.664;2024-02-14T07:17:22;78.47;;;43.75;;
13731;SDS011;6937;56.096;12.664;2024-02-14T07:19:47;93.47;;;45.70;;
13731;SDS011;6937;56.096;12.664;2024-02-14T07:22:14;90.63;;;46.15;;
13731;SDS011;6937;56.096;12.664;2024-02-14T07:24:44;94.72;;;46.35;;
13731;SDS011;6937;56.096;12.664;2024-02-14T07:27:11;88.00;;;45.38;;
13731;SDS011;6937;56.096;12.664;2024-02-14T07:29:40;102.75;;;49.10;;
13731;SDS011;6937;56.096;12.664;2024-02-14T07:32:06;93.78;;;47.10;;
13731;SDS011;6937;56.096;12.664;2024-02-14T07:34:32;91.97;;;46.13;;
13731;SDS011;6937;56.096;12.664;2024-02-14T07:36:57;99.13;;;47.40;;
13731;SDS011;6937;56.096;12.664;2024-02-14T07:39:22;91.72;;;46.05;;
13731;SDS011;6937;56.096;12.664;2024-02-14T07:41:48;96.32;;;45.70;;
13731;SDS011;6937;56.096;12.664;2024-02-14T07:44:14;93.85;;;45.58;;
13731;SDS011;6937;56.096;12.664;2024-02-14T07:46:39;92.30;;;44.95;;
13731;SDS011;6937;56.096;12.664;2024-02-14T07:49:05;89.95;;;44.47;;
13731;SDS011;6937;56.096;12.664;2024-02-14T07:51:32;96.55;;;45.50;;
13731;SDS011;6937;56.096;12.664;2024-02-14T07:54:05;81.50;;;42.28;;
13731;SDS011;6937;56.096;12.664;2024-02-14T07:56:30;82.50;;;44.67;;
13731;SDS011;6937;56.096;12.664;2024-02-14T07:58:56;80.97;;;44.08;;
13731;SDS011;6937;56.096;12.664;2024-02-14T08:01:22;79.93;;;43.65;;
13731;SDS011;6937;56.096;12.664;2024-02-14T08:03:47;80.43;;;43.88;;
13731;SDS011;6937;56.096;12.664;2024-02-14T08:06:13;76.38;;;43.97;;
13731;SDS011;6937;56.096;12.664;2024-02-14T08:08:39;84.95;;;44.22;;
13731;SDS011;6937;56.096;12.664;2024-02-14T08:11:04;94.60;;;46.50;;
13731;SDS011;6937;56.096;12.664;2024-02-14T08:13:30;91.28;;;44.70;;
13731;SDS011;6937;56.096;12.664;2024-02-14T08:15:56;91.05;;;43.67;;
13731;SDS011;6937;56.096;12.664;2024-02-14T08:18:23;89.10;;;44.47;;
13731;SDS011;6937;56.096;12.664;2024-02-14T08:20:49;89.88;;;43.75;;
13731;SDS011;6937;56.096;12.664;2024-02-14T08:23:14;79.05;;;42.42;;
13731;SDS011;6937;56.096;12.664;2024-02-14T08:25:39;85.13;;;42.55;;
13731;SDS011;6937;56.096;12.664;2024-02-14T08:28:06;89.28;;;42.45;;
13731;SDS011;6937;56.096;12.664;2024-02-14T08:30:32;91.55;;;43.13;;
13731;SDS011;6937;56.096;12.664;2024-02-14T08:32:58;79.18;;;41.15;;
13731;SDS011;6937;56.096;12.664;2024-02-14T08:35:23;67.63;;;38.92;;
13731;SDS011;6937;56.096;12.664;2024-02-14T08:37:49;77.03;;;40.58;;
13731;SDS011;6937;56.096;12.664;2024-02-14T08:40:14;65.30;;;38.47;;
13731;SDS011;6937;56.096;12.664;2024-02-14T08:42:40;68.05;;;38.85;;
13731;SDS011;6937;56.096;12.664;2024-02-14T08:45:05;60.55;;;35.88;;
13731;SDS011;6937;56.096;12.664;2024-02-14T08:47:31;65.53;;;36.67;;
13731;SDS011;6937;56.096;12.664;2024-02-14T08:49:56;58.88;;;34.63;;
13731;SDS011;6937;56.096;12.664;2024-02-14T08:52:22;50.80;;;32.63;;
13731;SDS011;6937;56.096;12.664;2024-02-14T08:54:47;54.55;;;33.00;;
13731;SDS011;6937;56.096;12.664;2024-02-14T08:57:12;45.25;;;31.90;;
13731;SDS011;6937;56.096;12.664;2024-02-14T08:59:38;45.85;;;31.27;;
13731;SDS011;6937;56.096;12.664;2024-02-14T09:02:03;45.33;;;31.27;;
13731;SDS011;6937;56.096;12.664;2024-02-14T09:04:28;41.50;;;29.27;;
13731;SDS011;6937;56.096;12.664;2024-02-14T09:06:54;39.08;;;28.42;;
13731;SDS011;6937;56.096;12.664;2024-02-14T09:09:19;41.90;;;28.83;;
13731;SDS011;6937;56.096;12.664;2024-02-14T09:11:45;36.10;;;27.40;;
13731;SDS011;6937;56.096;12.664;2024-02-14T09:14:13;37.45;;;27.08;;
13731;SDS011;6937;56.096;12.664;2024-02-14T09:16:38;33.22;;;24.92;;
13731;SDS011;6937;56.096;12.664;2024-02-14T09:19:04;37.47;;;25.85;;
13731;SDS011;6937;56.096;12.664;2024-02-14T09:21:32;27.85;;;24.40;;
13731;SDS011;6937;56.096;12.664;2024-02-14T09:23:59;31.98;;;23.58;;
13731;SDS011;6937;56.096;12.664;2024-02-14T09:26:25;26.48;;;23.00;;
13731;SDS011;6937;56.096;12.664;2024-02-14T09:28:51;26.30;;;22.95;;
13731;SDS011;6937;56.096;12.664;2024-02-14T09:31:20;24.70;;;20.48;;
13731;SDS011;6937;56.096;12.664;2024-02-14T09:33:46;23.58;;;20.48;;
13731;SDS011;6937;56.096;12.664;2024-02-14T09:36:13;24.67;;;19.27;;
13731;SDS011;6937;56.096;12.664;2024-02-14T09:38:39;27.00;;;18.65;;
13731;SDS011;6937;56.096;12.664;2024-02-14T09:41:06;27.33;;;19.40;;
13731;SDS011;6937;56.096;12.664;2024-02-14T09:43:55;20.88;;;16.48;;
13731;SDS011;6937;56.096;12.664;2024-02-14T09:46:21;21.00;;;16.08;;
13731;SDS011;6937;56.096;12.664;2024-02-14T09:48:52;21.27;;;15.13;;
13731;SDS011;6937;56.096;12.664;2024-02-14T09:51:19;15.98;;;13.77;;
13731;SDS011;6937;56.096;12.664;2024-02-14T09:53:46;17.00;;;13.75;;
13731;SDS011;6937;56.096;12.664;2024-02-14T09:56:12;16.52;;;12.88;;
13731;SDS011;6937;56.096;12.664;2024-02-14T09:58:39;15.02;;;12.27;;
13731;SDS011;6937;56.096;12.664;2024-02-14T10:01:06;16.50;;;12.05;;
13731;SDS011;6937;56.096;12.664;2024-02-14T10:03:31;13.55;;;10.90;;
13731;SDS011;6937;56.096;12.664;2024-02-14T10:05:57;15.43;;;11.90;;
13731;SDS011;6937;56.096;12.664;2024-02-14T10:08:23;13.13;;;11.68;;
13731;SDS011;6937;56.096;12.664;2024-02-14T10:10:49;15.07;;;11.32;;
13731;SDS011;6937;56.096;12.664;2024-02-14T10:13:18;16.23;;;11.30;;
13731;SDS011;6937;56.096;12.664;2024-02-14T10:15:43;14.70;;;11.05;;
13731;SDS011;6937;56.096;12.664;2024-02-14T10:18:09;12.32;;;10.85;;
13731;SDS011;6937;56.096;12.664;2024-02-14T10:20:35;13.63;;;10.32;;
13731;SDS011;6937;56.096;12.664;2024-02-14T10:23:07;14.45;;;10.15;;
13731;SDS011;6937;56.096;12.664;2024-02-14T10:25:36;13.57;;;9.38;;
13731;SDS011;6937;56.096;12.664;2024-02-14T10:28:05;12.13;;;9.82;;
13731;SDS011;6937;56.096;12.664;2024-02-14T10:30:33;12.73;;;9.55;;
13731;SDS011;6937;56.096;12.664;2024-02-14T10:32:59;12.38;;;9.93;;
13731;SDS011;6937;56.096;12.664;2024-02-14T10:35:25;11.18;;;8.65;;
13731;SDS011;6937;56.096;12.664;2024-02-14T10:37:54;13.45;;;8.18;;
13731;SDS011;6937;56.096;12.664;2024-02-14T10:40:25;9.90;;;7.75;;
13731;SDS011;6937;56.096;12.664;2024-02-14T10:42:53;10.23;;;7.80;;
13731;SDS011;6937;56.096;12.664;2024-02-14T10:45:19;10.02;;;7.50;;
13731;SDS011;6937;56.096;12.664;2024-02-14T10:47:45;11.02;;;6.80;;
13731;SDS011;6937;56.096;12.664;2024-02-14T10:50:14;11.57;;;7.18;;
13731;SDS011;6937;56.096;12.664;2024-02-14T10:52:40;10.55;;;7.13;;
13731;SDS011;6937;56.096;12.664;2024-02-14T10:55:06;6.88;;;6.18;;
13731;SDS011;6937;56.096;12.664;2024-02-14T10:57:34;7.78;;;5.88;;
13731;SDS011;6937;56.096;12.664;2024-02-14T11:00:01;7.70;;;6.05;;
13731;SDS011;6937;56.096;12.664;2024-02-14T11:02:39;11.02;;;6.90;;
13731;SDS011;6937;56.096;12.664;2024-02-14T11:05:05;7.85;;;6.57;;
13731;SDS011;6937;56.096;12.664;2024-02-14T11:07:32;8.38;;;6.45;;
13731;SDS011;6937;56.096;12.664;2024-02-14T11:10:01;8.13;;;6.82;;
13731;SDS011;6937;56.096;12.664;2024-02-14T11:12:33;8.65;;;6.30;;
13731;SDS011;6937;56.096;12.664;2024-02-14T11:15:01;9.93;;;6.88;;
13731;SDS011;6937;56.096;12.664;2024-02-14T11:17:26;7.63;;;6.13;;
13731;SDS011;6937;56.096;12.664;2024-02-14T11:19:52;8.60;;;6.63;;
13731;SDS011;6937;56.096;12.664;2024-02-14T11:22:18;9.65;;;6.80;;
13731;SDS011;6937;56.096;12.664;2024-02-14T11:24:45;7.65;;;6.65;;
13731;SDS011;6937;56.096;12.664;2024-02-14T11:27:11;9.30;;;6.72;;
13731;SDS011;6937;56.096;12.664;2024-02-14T11:29:40;6.68;;;6.00;;
13731;SDS011;6937;56.096;12.664;2024-02-14T11:32:16;7.03;;;5.80;;
13731;SDS011;6937;56.096;12.664;2024-02-14T11:34:43;7.22;;;6.55;;
13731;SDS011;6937;56.096;12.664;2024-02-14T11:37:08;8.30;;;6.45;;
13731;SDS011;6937;56.096;12.664;2024-02-14T11:39:34;11.07;;;6.38;;
13731;SDS011;6937;56.096;12.664;2024-02-14T11:42:00;8.40;;;6.25;;
13731;SDS011;6937;56.096;12.664;2024-02-14T11:44:26;8.02;;;5.97;;
13731;SDS011;6937;56.096;12.664;2024-02-14T11:46:51;7.15;;;6.20;;
13731;SDS011;6937;56.096;12.664;2024-02-14T11:49:17;7.47;;;6.13;;
13731;SDS011;6937;56.096;12.664;2024-02-14T11:51:43;6.80;;;6.07;;
13731;SDS011;6937;56.096;12.664;2024-02-14T11:54:09;8.18;;;5.80;;
13731;SDS011;6937;56.096;12.664;2024-02-14T11:56:35;8.32;;;6.60;;
13731;SDS011;6937;56.096;12.664;2024-02-14T11:59:07;8.52;;;7.30;;
13731;SDS011;6937;56.096;12.664;2024-02-14T12:01:35;8.52;;;7.30;;
13731;SDS011;6937;56.096;12.664;2024-02-14T12:04:01;8.82;;;6.57;;
13731;SDS011;6937;56.096;12.664;2024-02-14T12:06:28;8.50;;;6.38;;
13731;SDS011;6937;56.096;12.664;2024-02-14T12:08:56;9.45;;;6.85;;
13731;SDS011;6937;56.096;12.664;2024-02-14T12:11:22;9.60;;;6.82;;
13731;SDS011;6937;56.096;12.664;2024-02-14T12:13:50;9.23;;;6.88;;
13731;SDS011;6937;56.096;12.664;2024-02-14T12:16:19;8.25;;;6.25;;
13731;SDS011;6937;56.096;12.664;2024-02-14T12:18:46;9.00;;;6.13;;
13731;SDS011;6937;56.096;12.664;2024-02-14T12:21:11;9.15;;;6.88;;
13731;SDS011;6937;56.096;12.664;2024-02-14T12:23:38;9.20;;;6.95;;
13731;SDS011;6937;56.096;12.664;2024-02-14T12:26:03;9.40;;;6.85;;
13731;SDS011;6937;56.096;12.664;2024-02-14T12:28:30;8.02;;;6.85;;
13731;SDS011;6937;56.096;12.664;2024-02-14T12:30:56;8.75;;;6.53;;
13731;SDS011;6937;56.096;12.664;2024-02-14T12:33:22;9.23;;;6.55;;
13731;SDS011;6937;56.096;12.664;2024-02-14T12:35:53;8.63;;;6.18;;
13731;SDS011;6937;56.096;12.664;2024-02-14T12:38:20;8.57;;;6.22;;
13731;SDS011;6937;56.096;12.664;2024-02-14T12:40:48;8.93;;;7.18;;
13731;SDS011;6937;56.096;12.664;2024-02-14T12:43:14;11.38;;;6.53;;
13731;SDS011;6937;56.096;12.664;2024-02-14T12:45:43;8.60;;;6.15;;
13731;SDS011;6937;56.096;12.664;2024-02-14T12:48:09;8.85;;;6.70;;
13731;SDS011;6937;56.096;12.664;2024-02-14T12:50:37;9.00;;;6.72;;
13731;SDS011;6937;56.096;12.664;2024-02-14T12:53:03;7.97;;;7.05;;
13731;SDS011;6937;56.096;12.664;2024-02-14T12:55:29;9.75;;;6.25;;
13731;SDS011;6937;56.096;12.664;2024-02-14T12:57:55;7.57;;;6.63;;
13731;SDS011;6937;56.096;12.664;2024-02-14T13:00:21;7.03;;;6.32;;
13731;SDS011;6937;56.096;12.664;2024-02-14T13:02:47;8.95;;;6.68;;
13731;SDS011;6937;56.096;12.664;2024-02-14T13:05:13;11.93;;;6.95;;
13731;SDS011;6937;56.096;12.664;2024-02-14T13:07:38;9.48;;;7.07;;
13731;SDS011;6937;56.096;12.664;2024-02-14T13:10:04;9.50;;;6.65;;
13731;SDS011;6937;56.096;12.664;2024-02-14T13:12:30;7.40;;;6.15;;
13731;SDS011;6937;56.096;12.664;2024-02-14T13:14:55;12.13;;;7.05;;
13731;SDS011;6937;56.096;12.664;2024-02-14T13:17:21;10.45;;;7.72;;
13731;SDS011;6937;56.096;12.664;2024-02-14T13:19:46;8.48;;;6.70;;
13731;SDS011;6937;56.096;12.664;2024-02-14T13:22:14;10.50;;;6.80;;
13731;SDS011;6937;56.096;12.664;2024-02-14T13:24:40;7.75;;;6.95;;
13731;SDS011;6937;56.096;12.664;2024-02-14T13:27:05;10.60;;;7.20;;
13731;SDS011;6937;56.096;12.664;2024-02-14T13:29:31;11.88;;;8.20;;
13731;SDS011;6937;56.096;12.664;2024-02-14T13:31:56;9.77;;;6.97;;
13731;SDS011;6937;56.096;12.664;2024-02-14T13:34:21;12.13;;;6.88;;
13731;SDS011;6937;56.096;12.664;2024-02-14T13:36:47;10.52;;;7.20;;
13731;SDS011;6937;56.096;12.664;2024-02-14T13:39:13;8.85;;;6.65;;
13731;SDS011;6937;56.096;12.664;2024-02-14T13:41:39;8.38;;;7.32;;
13731;SDS011;6937;56.096;12.664;2024-02-14T13:44:07;11.82;;;6.93;;
13731;SDS011;6937;56.096;12.664;2024-02-14T13:46:33;8.68;;;7.32;;
13731;SDS011;6937;56.096;12.664;2024-02-14T13:48:59;12.48;;;7.68;;
13731;SDS011;6937;56.096;12.664;2024-02-14T13:51:25;10.50;;;7.55;;
13731;SDS011;6937;56.096;12.664;2024-02-14T13:53:51;12.18;;;7.88;;
13731;SDS011;6937;56.096;12.664;2024-02-14T13:56:17;8.45;;;7.53;;
13731;SDS011;6937;56.096;12.664;2024-02-14T13:58:43;8.85;;;7.30;;
13731;SDS011;6937;56.096;12.664;2024-02-14T14:01:09;9.10;;;7.22;;
13731;SDS011;6937;56.096;12.664;2024-02-14T14:03:35;8.65;;;7.63;;
13731;SDS011;6937;56.096;12.664;2024-02-14T14:06:02;9.07;;;7.20;;
13731;SDS011;6937;56.096;12.664;2024-02-14T14:08:30;9.52;;;6.90;;
13731;SDS011;6937;56.096;12.664;2024-02-14T14:10:55;7.68;;;6.95;;
13731;SDS011;6937;56.096;12.664;2024-02-14T14:13:21;11.82;;;7.45;;
13731;SDS011;6937;56.096;12.664;2024-02-14T14:15:46;13.07;;;7.45;;
13731;SDS011;6937;56.096;12.664;2024-02-14T14:18:11;10.85;;;7.80;;
13731;SDS011;6937;56.096;12.664;2024-02-14T14:20:37;9.40;;;7.60;;
13731;SDS011;6937;56.096;12.664;2024-02-14T14:23:03;8.60;;;7.10;;